sensor_id;sensor_type;location;lat;lon;timestamp;P1;durP1;ratioP1;P2;durP2;ratioP2
69551;SDS011;63774;45.292;11.784;2022-11-23T00:00:26;1.50;;;0.60;;
69551;SDS011;63774;45.292;11.784;2022-11-23T00:02:52;1.80;;;0.90;;
69551;SDS011;63774;45.292;11.784;2022-11-23T00:05:23;1.60;;;0.90;;
69551;SDS011;63774;45.292;11.784;2022-11-23T00:07:49;1.60;;;0.90;;
69551;SDS011;63774;45.292;11.784;2022-11-23T00:10:15;1.70;;;0.60;;
69551;SDS011;63774;45.292;11.784;2022-11-23T00:12:40;2.30;;;0.90;;
69551;SDS011;63774;45.292;11.784;2022-11-23T00:15:06;2.60;;;0.90;;
69551;SDS011;63774;45.292;11.784;2022-11-23T00:17:32;1.60;;;0.70;;
69551;SDS011;63774;45.292;11.784;2022-11-23T00:19:58;1.40;;;0.80;;
69551;SDS011;63774;45.292;11.784;2022-11-23T00:22:23;1.40;;;0.80;;
69551;SDS011;63774;45.292;11.784;2022-11-23T00:24:49;1.80;;;0.90;;
69551;SDS011;63774;45.292;11.784;2022-11-23T00:27:15;2.30;;;0.90;;
69551;SDS011;63774;45.292;11.784;2022-11-23T00:29:41;1.20;;;0.80;;
69551;SDS011;63774;45.292;11.784;2022-11-23T00:32:06;1.50;;;0.70;;
69551;SDS011;63774;45.292;11.784;2022-11-23T00:34:32;1.30;;;0.70;;
69551;SDS011;63774;45.292;11.784;2022-11-23T00:36:57;1.60;;;1.00;;
69551;SDS011;63774;45.292;11.784;2022-11-23T00:39:22;1.40;;;0.90;;
69551;SDS011;63774;45.292;11.784;2022-11-23T00:41:48;1.30;;;0.80;;
69551;SDS011;63774;45.292;11.784;2022-11-23T00:44:13;1.30;;;0.70;;
69551;SDS011;63774;45.292;11.784;2022-11-23T00:46:39;2.20;;;0.90;;
69551;SDS011;63774;45.292;11.784;2022-11-23T00:49:04;1.60;;;0.80;;
69551;SDS011;63774;45.292;11.784;2022-11-23T00:51:32;1.40;;;0.70;;
69551;SDS011;63774;45.292;11.784;2022-11-23T00:54:00;1.80;;;0.80;;
69551;SDS011;63774;45.292;11.784;2022-11-23T00:56:27;1.70;;;0.80;;
69551;SDS011;63774;45.292;11.784;2022-11-23T00:58:54;1.90;;;0.60;;
69551;SDS011;63774;45.292;11.784;2022-11-23T01:01:22;1.70;;;0.70;;
69551;SDS011;63774;45.292;11.784;2022-11-23T01:03:59;1.40;;;0.70;;
69551;SDS011;63774;45.292;11.784;2022-11-23T01:06:26;1.50;;;0.70;;
69551;SDS011;63774;45.292;11.784;2022-11-23T01:08:55;1.60;;;0.80;;
69551;SDS011;63774;45.292;11.784;2022-11-23T01:11:22;1.10;;;0.60;;
69551;SDS011;63774;45.292;11.784;2022-11-23T01:13:49;1.30;;;0.70;;
69551;SDS011;63774;45.292;11.784;2022-11-23T01:16:22;1.50;;;0.70;;
69551;SDS011;63774;45.292;11.784;2022-11-23T01:18:54;1.10;;;0.70;;
69551;SDS011;63774;45.292;11.784;2022-11-23T01:21:20;1.70;;;0.80;;
69551;SDS011;63774;45.292;11.784;2022-11-23T01:23:46;1.10;;;0.60;;
69551;SDS011;63774;45.292;11.784;2022-11-23T01:26:12;1.50;;;0.70;;
69551;SDS011;63774;45.292;11.784;2022-11-23T01:28:38;1.10;;;0.40;;
69551;SDS011;63774;45.292;11.784;2022-11-23T01:31:11;1.80;;;0.80;;
69551;SDS011;63774;45.292;11.784;2022-11-23T01:33:39;1.10;;;0.60;;
69551;SDS011;63774;45.292;11.784;2022-11-23T01:36:09;1.30;;;0.70;;
69551;SDS011;63774;45.292;11.784;2022-11-23T01:38:34;0.90;;;0.60;;
69551;SDS011;63774;45.292;11.784;2022-11-23T01:41:00;0.90;;;0.50;;
69551;SDS011;63774;45.292;11.784;2022-11-23T01:43:25;1.70;;;0.70;;
69551;SDS011;63774;45.292;11.784;2022-11-23T01:48:21;0.80;;;0.50;;
69551;SDS011;63774;45.292;11.784;2022-11-23T01:51:10;1.40;;;0.70;;
69551;SDS011;63774;45.292;11.784;2022-11-23T01:53:39;1.80;;;0.60;;
69551;SDS011;63774;45.292;11.784;2022-11-23T01:56:06;1.30;;;0.70;;
69551;SDS011;63774;45.292;11.784;2022-11-23T01:58:35;1.10;;;0.70;;
69551;SDS011;63774;45.292;11.784;2022-11-23T02:01:06;1.20;;;0.70;;
69551;SDS011;63774;45.292;11.784;2022-11-23T02:03:32;1.20;;;0.70;;
69551;SDS011;63774;45.292;11.784;2022-11-23T02:06:02;1.20;;;0.40;;
69551;SDS011;63774;45.292;11.784;2022-11-23T02:08:31;1.00;;;0.50;;
69551;SDS011;63774;45.292;11.784;2022-11-23T02:10:58;1.10;;;0.60;;
69551;SDS011;63774;45.292;11.784;2022-11-23T02:13:24;0.80;;;0.60;;
69551;SDS011;63774;45.292;11.784;2022-11-23T02:15:53;0.90;;;0.60;;
69551;SDS011;63774;45.292;11.784;2022-11-23T02:18:23;1.30;;;0.70;;
69551;SDS011;63774;45.292;11.784;2022-11-23T02:20:52;1.20;;;0.70;;
69551;SDS011;63774;45.292;11.784;2022-11-23T02:23:25;1.10;;;0.80;;
69551;SDS011;63774;45.292;11.784;2022-11-23T02:25:59;1.40;;;0.70;;
69551;SDS011;63774;45.292;11.784;2022-11-23T02:28:30;1.30;;;0.60;;
69551;SDS011;63774;45.292;11.784;2022-11-23T02:31:00;0.80;;;0.40;;
69551;SDS011;63774;45.292;11.784;2022-11-23T02:33:26;1.00;;;0.50;;
69551;SDS011;63774;45.292;11.784;2022-11-23T02:35:54;1.40;;;0.50;;
69551;SDS011;63774;45.292;11.784;2022-11-23T02:38:21;1.80;;;0.60;;
69551;SDS011;63774;45.292;11.784;2022-11-23T02:40:48;1.10;;;0.70;;
69551;SDS011;63774;45.292;11.784;2022-11-23T02:43:13;1.30;;;0.60;;
69551;SDS011;63774;45.292;11.784;2022-11-23T02:45:41;1.10;;;0.50;;
69551;SDS011;63774;45.292;11.784;2022-11-23T02:48:17;1.10;;;0.60;;
69551;SDS011;63774;45.292;11.784;2022-11-23T02:50:42;1.10;;;0.60;;
69551;SDS011;63774;45.292;11.784;2022-11-23T02:53:08;0.70;;;0.50;;
69551;SDS011;63774;45.292;11.784;2022-11-23T02:55:34;1.10;;;0.50;;
69551;SDS011;63774;45.292;11.784;2022-11-23T02:57:59;1.20;;;0.70;;
69551;SDS011;63774;45.292;11.784;2022-11-23T03:00:26;1.20;;;0.60;;
69551;SDS011;63774;45.292;11.784;2022-11-23T03:02:51;1.20;;;0.60;;
69551;SDS011;63774;45.292;11.784;2022-11-23T03:05:16;1.00;;;0.60;;
69551;SDS011;63774;45.292;11.784;2022-11-23T03:07:42;1.30;;;0.60;;
69551;SDS011;63774;45.292;11.784;2022-11-23T03:10:08;0.90;;;0.50;;
69551;SDS011;63774;45.292;11.784;2022-11-23T03:12:34;1.00;;;0.60;;
69551;SDS011;63774;45.292;11.784;2022-11-23T03:14:59;0.90;;;0.50;;
69551;SDS011;63774;45.292;11.784;2022-11-23T03:17:25;1.50;;;0.50;;
69551;SDS011;63774;45.292;11.784;2022-11-23T03:19:52;1.20;;;0.50;;
69551;SDS011;63774;45.292;11.784;2022-11-23T03:22:17;1.10;;;0.60;;
69551;SDS011;63774;45.292;11.784;2022-11-23T03:24:43;1.40;;;0.60;;
69551;SDS011;63774;45.292;11.784;2022-11-23T03:27:09;0.80;;;0.50;;
69551;SDS011;63774;45.292;11.784;2022-11-23T03:29:34;1.00;;;0.60;;
69551;SDS011;63774;45.292;11.784;2022-11-23T03:32:00;1.70;;;0.50;;
69551;SDS011;63774;45.292;11.784;2022-11-23T03:34:25;0.80;;;0.40;;
69551;SDS011;63774;45.292;11.784;2022-11-23T03:36:51;1.70;;;0.70;;
69551;SDS011;63774;45.292;11.784;2022-11-23T03:39:16;1.70;;;0.50;;
69551;SDS011;63774;45.292;11.784;2022-11-23T03:41:42;1.00;;;0.60;;
69551;SDS011;63774;45.292;11.784;2022-11-23T03:44:07;1.10;;;0.60;;
69551;SDS011;63774;45.292;11.784;2022-11-23T03:46:32;1.10;;;0.50;;
69551;SDS011;63774;45.292;11.784;2022-11-23T03:48:58;0.80;;;0.50;;
69551;SDS011;63774;45.292;11.784;2022-11-23T03:51:23;1.10;;;0.50;;
69551;SDS011;63774;45.292;11.784;2022-11-23T03:53:49;1.10;;;0.60;;
69551;SDS011;63774;45.292;11.784;2022-11-23T03:56:15;0.90;;;0.50;;
69551;SDS011;63774;45.292;11.784;2022-11-23T03:58:40;0.80;;;0.50;;
69551;SDS011;63774;45.292;11.784;2022-11-23T04:01:05;0.70;;;0.50;;
69551;SDS011;63774;45.292;11.784;2022-11-23T04:03:31;0.80;;;0.50;;
69551;SDS011;63774;45.292;11.784;2022-11-23T04:05:57;1.30;;;0.60;;
69551;SDS011;63774;45.292;11.784;2022-11-23T04:08:23;1.50;;;0.50;;
69551;SDS011;63774;45.292;11.784;2022-11-23T04:10:48;1.20;;;0.70;;
69551;SDS011;63774;45.292;11.784;2022-11-23T04:13:14;1.00;;;0.50;;
69551;SDS011;63774;45.292;11.784;2022-11-23T04:15:39;1.00;;;0.40;;
69551;SDS011;63774;45.292;11.784;2022-11-23T04:18:05;1.20;;;0.60;;
69551;SDS011;63774;45.292;11.784;2022-11-23T04:20:30;0.80;;;0.40;;
69551;SDS011;63774;45.292;11.784;2022-11-23T04:22:55;0.50;;;0.40;;
69551;SDS011;63774;45.292;11.784;2022-11-23T04:25:21;0.70;;;0.50;;
69551;SDS011;63774;45.292;11.784;2022-11-23T04:27:46;0.70;;;0.50;;
69551;SDS011;63774;45.292;11.784;2022-11-23T04:30:12;1.60;;;0.50;;
69551;SDS011;63774;45.292;11.784;2022-11-23T04:32:38;1.00;;;0.50;;
69551;SDS011;63774;45.292;11.784;2022-11-23T04:35:03;0.90;;;0.60;;
69551;SDS011;63774;45.292;11.784;2022-11-23T04:37:29;0.80;;;0.50;;
69551;SDS011;63774;45.292;11.784;2022-11-23T04:39:54;0.90;;;0.60;;
69551;SDS011;63774;45.292;11.784;2022-11-23T04:42:20;1.20;;;0.60;;
69551;SDS011;63774;45.292;11.784;2022-11-23T04:44:45;0.80;;;0.50;;
69551;SDS011;63774;45.292;11.784;2022-11-23T04:47:11;0.90;;;0.50;;
69551;SDS011;63774;45.292;11.784;2022-11-23T04:49:37;1.60;;;0.60;;
69551;SDS011;63774;45.292;11.784;2022-11-23T04:52:02;1.50;;;0.70;;
69551;SDS011;63774;45.292;11.784;2022-11-23T04:54:29;1.20;;;0.60;;
69551;SDS011;63774;45.292;11.784;2022-11-23T04:56:54;1.10;;;0.70;;
69551;SDS011;63774;45.292;11.784;2022-11-23T04:59:20;1.30;;;0.50;;
69551;SDS011;63774;45.292;11.784;2022-11-23T05:01:47;1.20;;;0.70;;
69551;SDS011;63774;45.292;11.784;2022-11-23T05:04:13;1.10;;;0.60;;
69551;SDS011;63774;45.292;11.784;2022-11-23T05:06:39;0.80;;;0.40;;
69551;SDS011;63774;45.292;11.784;2022-11-23T05:09:04;0.90;;;0.60;;
69551;SDS011;63774;45.292;11.784;2022-11-23T05:11:30;1.10;;;0.60;;
69551;SDS011;63774;45.292;11.784;2022-11-23T05:13:55;1.10;;;0.50;;
69551;SDS011;63774;45.292;11.784;2022-11-23T05:16:21;0.90;;;0.60;;
69551;SDS011;63774;45.292;11.784;2022-11-23T05:18:46;0.80;;;0.60;;
69551;SDS011;63774;45.292;11.784;2022-11-23T05:21:12;1.10;;;0.70;;
69551;SDS011;63774;45.292;11.784;2022-11-23T05:23:37;0.80;;;0.50;;
69551;SDS011;63774;45.292;11.784;2022-11-23T05:26:02;0.90;;;0.50;;
69551;SDS011;63774;45.292;11.784;2022-11-23T05:28:28;0.90;;;0.60;;
69551;SDS011;63774;45.292;11.784;2022-11-23T05:30:53;0.90;;;0.60;;
69551;SDS011;63774;45.292;11.784;2022-11-23T05:33:19;0.90;;;0.70;;
69551;SDS011;63774;45.292;11.784;2022-11-23T05:35:44;1.10;;;0.70;;
69551;SDS011;63774;45.292;11.784;2022-11-23T05:38:09;0.90;;;0.50;;
69551;SDS011;63774;45.292;11.784;2022-11-23T05:40:35;1.20;;;0.60;;
69551;SDS011;63774;45.292;11.784;2022-11-23T05:43:00;1.30;;;0.60;;
69551;SDS011;63774;45.292;11.784;2022-11-23T05:45:26;1.00;;;0.50;;
69551;SDS011;63774;45.292;11.784;2022-11-23T05:47:52;1.00;;;0.60;;
69551;SDS011;63774;45.292;11.784;2022-11-23T05:50:19;1.30;;;0.70;;
69551;SDS011;63774;45.292;11.784;2022-11-23T05:52:46;1.10;;;0.60;;
69551;SDS011;63774;45.292;11.784;2022-11-23T05:55:11;1.50;;;0.80;;
69551;SDS011;63774;45.292;11.784;2022-11-23T05:57:37;1.40;;;0.70;;
69551;SDS011;63774;45.292;11.784;2022-11-23T06:00:03;1.00;;;0.60;;
69551;SDS011;63774;45.292;11.784;2022-11-23T06:02:29;0.90;;;0.60;;
69551;SDS011;63774;45.292;11.784;2022-11-23T06:04:54;1.00;;;0.60;;
69551;SDS011;63774;45.292;11.784;2022-11-23T06:07:20;1.00;;;0.70;;
69551;SDS011;63774;45.292;11.784;2022-11-23T06:09:45;1.10;;;0.60;;
69551;SDS011;63774;45.292;11.784;2022-11-23T06:12:11;1.20;;;0.50;;
69551;SDS011;63774;45.292;11.784;2022-11-23T06:14:36;1.00;;;0.60;;
69551;SDS011;63774;45.292;11.784;2022-11-23T06:17:02;1.00;;;0.60;;
69551;SDS011;63774;45.292;11.784;2022-11-23T06:19:27;0.90;;;0.50;;
69551;SDS011;63774;45.292;11.784;2022-11-23T06:21:54;0.90;;;0.50;;
69551;SDS011;63774;45.292;11.784;2022-11-23T06:24:21;1.10;;;0.60;;
69551;SDS011;63774;45.292;11.784;2022-11-23T06:26:48;1.00;;;0.60;;
69551;SDS011;63774;45.292;11.784;2022-11-23T06:29:13;1.20;;;0.60;;
69551;SDS011;63774;45.292;11.784;2022-11-23T06:31:38;1.20;;;0.80;;
69551;SDS011;63774;45.292;11.784;2022-11-23T06:34:04;1.00;;;0.60;;
69551;SDS011;63774;45.292;11.784;2022-11-23T06:36:29;0.80;;;0.50;;
69551;SDS011;63774;45.292;11.784;2022-11-23T06:38:55;0.80;;;0.50;;
69551;SDS011;63774;45.292;11.784;2022-11-23T06:41:20;0.70;;;0.40;;
69551;SDS011;63774;45.292;11.784;2022-11-23T06:43:46;1.10;;;0.70;;
69551;SDS011;63774;45.292;11.784;2022-11-23T06:46:12;1.00;;;0.50;;
69551;SDS011;63774;45.292;11.784;2022-11-23T06:48:37;0.70;;;0.50;;
69551;SDS011;63774;45.292;11.784;2022-11-23T06:51:02;0.90;;;0.50;;
69551;SDS011;63774;45.292;11.784;2022-11-23T06:53:28;1.30;;;0.70;;
69551;SDS011;63774;45.292;11.784;2022-11-23T06:55:58;1.30;;;0.80;;
69551;SDS011;63774;45.292;11.784;2022-11-23T06:58:24;1.10;;;0.70;;
69551;SDS011;63774;45.292;11.784;2022-11-23T07:00:50;0.80;;;0.50;;
69551;SDS011;63774;45.292;11.784;2022-11-23T07:03:17;0.90;;;0.50;;
69551;SDS011;63774;45.292;11.784;2022-11-23T07:05:45;0.90;;;0.60;;
69551;SDS011;63774;45.292;11.784;2022-11-23T07:08:10;1.20;;;0.50;;
69551;SDS011;63774;45.292;11.784;2022-11-23T07:10:35;1.40;;;0.70;;
69551;SDS011;63774;45.292;11.784;2022-11-23T07:13:04;0.90;;;0.60;;
69551;SDS011;63774;45.292;11.784;2022-11-23T07:15:31;1.20;;;0.50;;
69551;SDS011;63774;45.292;11.784;2022-11-23T07:17:57;1.10;;;0.70;;
69551;SDS011;63774;45.292;11.784;2022-11-23T07:20:22;0.60;;;0.50;;
69551;SDS011;63774;45.292;11.784;2022-11-23T07:22:53;1.10;;;0.50;;
69551;SDS011;63774;45.292;11.784;2022-11-23T07:25:33;1.00;;;0.70;;
69551;SDS011;63774;45.292;11.784;2022-11-23T07:28:00;1.30;;;0.70;;
69551;SDS011;63774;45.292;11.784;2022-11-23T07:30:27;0.80;;;0.50;;
69551;SDS011;63774;45.292;11.784;2022-11-23T07:33:01;1.30;;;0.80;;
69551;SDS011;63774;45.292;11.784;2022-11-23T07:35:28;1.20;;;0.70;;
69551;SDS011;63774;45.292;11.784;2022-11-23T07:37:55;1.30;;;0.80;;
69551;SDS011;63774;45.292;11.784;2022-11-23T07:40:21;1.30;;;0.80;;
69551;SDS011;63774;45.292;11.784;2022-11-23T07:42:46;1.50;;;0.90;;
69551;SDS011;63774;45.292;11.784;2022-11-23T07:45:12;1.10;;;0.90;;
69551;SDS011;63774;45.292;11.784;2022-11-23T07:47:37;1.60;;;1.00;;
69551;SDS011;63774;45.292;11.784;2022-11-23T07:50:07;0.90;;;0.70;;
69551;SDS011;63774;45.292;11.784;2022-11-23T07:52:35;1.20;;;0.80;;
69551;SDS011;63774;45.292;11.784;2022-11-23T07:55:01;3.20;;;0.90;;
69551;SDS011;63774;45.292;11.784;2022-11-23T07:57:27;1.00;;;0.80;;
69551;SDS011;63774;45.292;11.784;2022-11-23T07:59:52;1.60;;;0.90;;
69551;SDS011;63774;45.292;11.784;2022-11-23T08:02:17;4.70;;;1.10;;
69551;SDS011;63774;45.292;11.784;2022-11-23T08:04:43;1.60;;;0.80;;
69551;SDS011;63774;45.292;11.784;2022-11-23T08:07:08;1.20;;;0.80;;
69551;SDS011;63774;45.292;11.784;2022-11-23T08:09:34;1.30;;;0.80;;
69551;SDS011;63774;45.292;11.784;2022-11-23T08:11:59;2.20;;;1.00;;
69551;SDS011;63774;45.292;11.784;2022-11-23T08:14:25;1.60;;;0.90;;
69551;SDS011;63774;45.292;11.784;2022-11-23T08:16:50;1.90;;;1.00;;
69551;SDS011;63774;45.292;11.784;2022-11-23T08:19:16;1.40;;;0.80;;
69551;SDS011;63774;45.292;11.784;2022-11-23T08:21:42;2.50;;;0.90;;
69551;SDS011;63774;45.292;11.784;2022-11-23T08:24:09;1.30;;;0.90;;
69551;SDS011;63774;45.292;11.784;2022-11-23T08:26:34;1.50;;;0.90;;
69551;SDS011;63774;45.292;11.784;2022-11-23T08:29:00;2.00;;;1.10;;
69551;SDS011;63774;45.292;11.784;2022-11-23T08:31:27;1.60;;;1.00;;
69551;SDS011;63774;45.292;11.784;2022-11-23T08:33:52;1.20;;;0.90;;
69551;SDS011;63774;45.292;11.784;2022-11-23T08:36:18;1.80;;;1.10;;
69551;SDS011;63774;45.292;11.784;2022-11-23T08:38:44;2.70;;;0.90;;
69551;SDS011;63774;45.292;11.784;2022-11-23T08:41:09;1.70;;;1.10;;
69551;SDS011;63774;45.292;11.784;2022-11-23T08:43:35;2.20;;;1.00;;
69551;SDS011;63774;45.292;11.784;2022-11-23T08:46:00;1.60;;;1.00;;
69551;SDS011;63774;45.292;11.784;2022-11-23T08:48:27;1.20;;;0.90;;
69551;SDS011;63774;45.292;11.784;2022-11-23T08:50:52;3.40;;;1.10;;
69551;SDS011;63774;45.292;11.784;2022-11-23T08:53:23;1.80;;;0.90;;
69551;SDS011;63774;45.292;11.784;2022-11-23T08:55:48;1.30;;;0.90;;
69551;SDS011;63774;45.292;11.784;2022-11-23T08:58:14;1.40;;;1.10;;
69551;SDS011;63774;45.292;11.784;2022-11-23T09:00:39;1.90;;;1.00;;
69551;SDS011;63774;45.292;11.784;2022-11-23T09:03:05;1.80;;;0.90;;
69551;SDS011;63774;45.292;11.784;2022-11-23T09:05:30;2.00;;;1.00;;
69551;SDS011;63774;45.292;11.784;2022-11-23T09:07:59;1.20;;;0.90;;
69551;SDS011;63774;45.292;11.784;2022-11-23T09:10:25;2.50;;;1.00;;
69551;SDS011;63774;45.292;11.784;2022-11-23T09:12:50;2.20;;;1.00;;
69551;SDS011;63774;45.292;11.784;2022-11-23T09:15:16;1.30;;;0.90;;
69551;SDS011;63774;45.292;11.784;2022-11-23T09:17:42;2.70;;;1.20;;
69551;SDS011;63774;45.292;11.784;2022-11-23T09:20:08;1.60;;;0.90;;
69551;SDS011;63774;45.292;11.784;2022-11-23T09:22:34;1.30;;;1.00;;
69551;SDS011;63774;45.292;11.784;2022-11-23T09:25:00;2.20;;;1.10;;
69551;SDS011;63774;45.292;11.784;2022-11-23T09:27:26;1.20;;;0.90;;
69551;SDS011;63774;45.292;11.784;2022-11-23T09:29:52;1.80;;;0.90;;
69551;SDS011;63774;45.292;11.784;2022-11-23T09:32:17;1.10;;;0.80;;
69551;SDS011;63774;45.292;11.784;2022-11-23T09:34:43;1.60;;;1.00;;
69551;SDS011;63774;45.292;11.784;2022-11-23T09:37:10;2.00;;;1.10;;
69551;SDS011;63774;45.292;11.784;2022-11-23T09:39:36;1.60;;;1.00;;
69551;SDS011;63774;45.292;11.784;2022-11-23T09:44:45;2.30;;;1.10;;
69551;SDS011;63774;45.292;11.784;2022-11-23T09:52:30;2.40;;;1.00;;
69551;SDS011;63774;45.292;11.784;2022-11-23T09:54:59;2.10;;;1.10;;
69551;SDS011;63774;45.292;11.784;2022-11-23T09:57:30;1.90;;;1.10;;
69551;SDS011;63774;45.292;11.784;2022-11-23T10:00:05;1.70;;;1.00;;
69551;SDS011;63774;45.292;11.784;2022-11-23T10:02:40;2.00;;;1.10;;
69551;SDS011;63774;45.292;11.784;2022-11-23T10:05:05;1.60;;;1.20;;
69551;SDS011;63774;45.292;11.784;2022-11-23T10:15:44;2.50;;;1.20;;
69551;SDS011;63774;45.292;11.784;2022-11-23T10:26:09;1.90;;;1.20;;
69551;SDS011;63774;45.292;11.784;2022-11-23T10:28:39;1.70;;;1.10;;
69551;SDS011;63774;45.292;11.784;2022-11-23T10:31:15;2.00;;;1.30;;
69551;SDS011;63774;45.292;11.784;2022-11-23T10:33:52;1.80;;;1.20;;
69551;SDS011;63774;45.292;11.784;2022-11-23T10:36:18;2.40;;;1.40;;
69551;SDS011;63774;45.292;11.784;2022-11-23T10:38:45;1.70;;;1.30;;
69551;SDS011;63774;45.292;11.784;2022-11-23T10:41:14;1.30;;;1.00;;
69551;SDS011;63774;45.292;11.784;2022-11-23T10:49:23;1.60;;;0.90;;
69551;SDS011;63774;45.292;11.784;2022-11-23T10:56:58;3.40;;;1.20;;
69551;SDS011;63774;45.292;11.784;2022-11-23T11:04:46;2.30;;;1.20;;
69551;SDS011;63774;45.292;11.784;2022-11-23T11:07:21;1.60;;;1.20;;
69551;SDS011;63774;45.292;11.784;2022-11-23T11:09:55;2.60;;;1.10;;
69551;SDS011;63774;45.292;11.784;2022-11-23T11:12:22;1.50;;;1.10;;
69551;SDS011;63774;45.292;11.784;2022-11-23T11:14:58;2.00;;;1.20;;
69551;SDS011;63774;45.292;11.784;2022-11-23T11:17:31;1.50;;;1.00;;
69551;SDS011;63774;45.292;11.784;2022-11-23T11:19:58;1.80;;;1.10;;
69551;SDS011;63774;45.292;11.784;2022-11-23T11:22:31;2.00;;;1.20;;
69551;SDS011;63774;45.292;11.784;2022-11-23T11:24:59;1.30;;;0.90;;
69551;SDS011;63774;45.292;11.784;2022-11-23T11:27:26;1.20;;;1.00;;
69551;SDS011;63774;45.292;11.784;2022-11-23T11:29:55;1.50;;;0.90;;
69551;SDS011;63774;45.292;11.784;2022-11-23T11:37:47;2.00;;;1.10;;
69551;SDS011;63774;45.292;11.784;2022-11-23T11:42:44;1.50;;;0.90;;
69551;SDS011;63774;45.292;11.784;2022-11-23T11:45:16;1.90;;;1.10;;
69551;SDS011;63774;45.292;11.784;2022-11-23T11:47:58;1.60;;;1.00;;
69551;SDS011;63774;45.292;11.784;2022-11-23T11:50:29;1.40;;;1.00;;
69551;SDS011;63774;45.292;11.784;2022-11-23T11:53:06;3.40;;;1.10;;
69551;SDS011;63774;45.292;11.784;2022-11-23T11:55:47;1.70;;;1.10;;
69551;SDS011;63774;45.292;11.784;2022-11-23T11:58:15;1.60;;;1.20;;
69551;SDS011;63774;45.292;11.784;2022-11-23T12:00:42;1.80;;;1.10;;
69551;SDS011;63774;45.292;11.784;2022-11-23T12:05:55;1.60;;;1.00;;
69551;SDS011;63774;45.292;11.784;2022-11-23T12:11:15;4.10;;;1.10;;
69551;SDS011;63774;45.292;11.784;2022-11-23T12:22:08;3.50;;;1.60;;
69551;SDS011;63774;45.292;11.784;2022-11-23T12:30:30;5.50;;;1.50;;
69551;SDS011;63774;45.292;11.784;2022-11-23T12:38:38;5.40;;;1.50;;
69551;SDS011;63774;45.292;11.784;2022-11-23T12:43:48;2.70;;;1.30;;
69551;SDS011;63774;45.292;11.784;2022-11-23T13:00:50;4.70;;;1.30;;
69551;SDS011;63774;45.292;11.784;2022-11-23T13:22:18;2.40;;;1.20;;
69551;SDS011;63774;45.292;11.784;2022-11-23T13:29:54;2.60;;;1.30;;
69551;SDS011;63774;45.292;11.784;2022-11-23T13:40:39;2.90;;;1.20;;
69551;SDS011;63774;45.292;11.784;2022-11-23T13:45:40;2.40;;;1.20;;
69551;SDS011;63774;45.292;11.784;2022-11-23T13:50:39;2.40;;;1.20;;
69551;SDS011;63774;45.292;11.784;2022-11-23T13:53:28;2.10;;;1.00;;
69551;SDS011;63774;45.292;11.784;2022-11-23T13:55:58;2.20;;;0.90;;
69551;SDS011;63774;45.292;11.784;2022-11-23T13:58:52;3.10;;;1.20;;
69551;SDS011;63774;45.292;11.784;2022-11-23T14:04:23;2.40;;;1.10;;
69551;SDS011;63774;45.292;11.784;2022-11-23T14:06:57;2.10;;;1.10;;
69551;SDS011;63774;45.292;11.784;2022-11-23T14:09:47;2.00;;;1.00;;
69551;SDS011;63774;45.292;11.784;2022-11-23T14:18:40;2.60;;;0.90;;
69551;SDS011;63774;45.292;11.784;2022-11-23T14:26:51;1.50;;;1.00;;
69551;SDS011;63774;45.292;11.784;2022-11-23T14:32:27;2.00;;;0.90;;
69551;SDS011;63774;45.292;11.784;2022-11-23T14:35:11;2.40;;;1.10;;
69551;SDS011;63774;45.292;11.784;2022-11-23T14:40:50;2.00;;;1.00;;
69551;SDS011;63774;45.292;11.784;2022-11-23T14:43:17;3.20;;;0.90;;
69551;SDS011;63774;45.292;11.784;2022-11-23T14:45:43;1.90;;;0.80;;
69551;SDS011;63774;45.292;11.784;2022-11-23T14:48:29;1.70;;;0.90;;
69551;SDS011;63774;45.292;11.784;2022-11-23T14:51:00;2.50;;;0.90;;
69551;SDS011;63774;45.292;11.784;2022-11-23T14:53:38;1.30;;;0.90;;
69551;SDS011;63774;45.292;11.784;2022-11-23T14:59:30;1.10;;;0.70;;
69551;SDS011;63774;45.292;11.784;2022-11-23T15:01:59;2.50;;;1.00;;
69551;SDS011;63774;45.292;11.784;2022-11-23T15:04:33;2.00;;;0.80;;
69551;SDS011;63774;45.292;11.784;2022-11-23T15:14:50;1.30;;;1.00;;
69551;SDS011;63774;45.292;11.784;2022-11-23T15:17:21;1.50;;;0.90;;
69551;SDS011;63774;45.292;11.784;2022-11-23T15:19:54;1.00;;;0.90;;
69551;SDS011;63774;45.292;11.784;2022-11-23T15:22:19;1.60;;;0.80;;
69551;SDS011;63774;45.292;11.784;2022-11-23T15:24:45;1.30;;;0.90;;
69551;SDS011;63774;45.292;11.784;2022-11-23T15:27:29;2.10;;;0.90;;
69551;SDS011;63774;45.292;11.784;2022-11-23T15:29:56;1.80;;;0.80;;
69551;SDS011;63774;45.292;11.784;2022-11-23T15:32:30;3.10;;;0.80;;
69551;SDS011;63774;45.292;11.784;2022-11-23T15:34:57;1.70;;;0.90;;
69551;SDS011;63774;45.292;11.784;2022-11-23T15:37:31;2.00;;;1.00;;
69551;SDS011;63774;45.292;11.784;2022-11-23T15:40:05;2.50;;;1.00;;
69551;SDS011;63774;45.292;11.784;2022-11-23T15:42:32;1.70;;;0.90;;
69551;SDS011;63774;45.292;11.784;2022-11-23T15:44:57;1.50;;;1.00;;
69551;SDS011;63774;45.292;11.784;2022-11-23T15:47:24;1.50;;;0.90;;
69551;SDS011;63774;45.292;11.784;2022-11-23T15:50:01;2.00;;;0.90;;
69551;SDS011;63774;45.292;11.784;2022-11-23T15:52:33;1.80;;;1.00;;
69551;SDS011;63774;45.292;11.784;2022-11-23T15:55:04;1.70;;;1.00;;
69551;SDS011;63774;45.292;11.784;2022-11-23T15:57:36;1.20;;;0.90;;
69551;SDS011;63774;45.292;11.784;2022-11-23T16:00:03;1.50;;;0.70;;
69551;SDS011;63774;45.292;11.784;2022-11-23T16:02:30;1.60;;;0.70;;
69551;SDS011;63774;45.292;11.784;2022-11-23T16:07:29;1.60;;;0.90;;
69551;SDS011;63774;45.292;11.784;2022-11-23T16:10:17;2.00;;;0.90;;
69551;SDS011;63774;45.292;11.784;2022-11-23T16:12:46;1.50;;;0.90;;
69551;SDS011;63774;45.292;11.784;2022-11-23T16:17:53;1.50;;;1.00;;
69551;SDS011;63774;45.292;11.784;2022-11-23T16:20:18;2.40;;;0.90;;
69551;SDS011;63774;45.292;11.784;2022-11-23T16:22:48;1.80;;;0.90;;
69551;SDS011;63774;45.292;11.784;2022-11-23T16:25:17;1.70;;;1.00;;
69551;SDS011;63774;45.292;11.784;2022-11-23T16:30:42;2.20;;;1.20;;
69551;SDS011;63774;45.292;11.784;2022-11-23T16:33:12;1.80;;;0.80;;
69551;SDS011;63774;45.292;11.784;2022-11-23T16:35:39;2.10;;;0.80;;
69551;SDS011;63774;45.292;11.784;2022-11-23T16:38:05;1.40;;;0.90;;
69551;SDS011;63774;45.292;11.784;2022-11-23T16:40:30;1.70;;;1.00;;
69551;SDS011;63774;45.292;11.784;2022-11-23T16:42:56;2.00;;;1.00;;
69551;SDS011;63774;45.292;11.784;2022-11-23T16:45:22;1.90;;;1.30;;
69551;SDS011;63774;45.292;11.784;2022-11-23T16:47:51;3.00;;;1.10;;
69551;SDS011;63774;45.292;11.784;2022-11-23T16:50:19;2.30;;;1.20;;
69551;SDS011;63774;45.292;11.784;2022-11-23T16:52:46;2.40;;;1.20;;
69551;SDS011;63774;45.292;11.784;2022-11-23T16:55:11;2.70;;;1.10;;
69551;SDS011;63774;45.292;11.784;2022-11-23T16:57:37;2.30;;;1.40;;
69551;SDS011;63774;45.292;11.784;2022-11-23T17:00:04;1.80;;;1.20;;
69551;SDS011;63774;45.292;11.784;2022-11-23T17:02:31;1.80;;;1.00;;
69551;SDS011;63774;45.292;11.784;2022-11-23T17:04:57;2.10;;;1.20;;
69551;SDS011;63774;45.292;11.784;2022-11-23T17:07:23;2.50;;;1.50;;
69551;SDS011;63774;45.292;11.784;2022-11-23T17:09:48;3.80;;;1.40;;
69551;SDS011;63774;45.292;11.784;2022-11-23T17:12:15;2.40;;;1.20;;
69551;SDS011;63774;45.292;11.784;2022-11-23T17:14:43;2.00;;;1.30;;
69551;SDS011;63774;45.292;11.784;2022-11-23T17:17:16;2.60;;;1.30;;
69551;SDS011;63774;45.292;11.784;2022-11-23T17:19:44;2.70;;;1.40;;
69551;SDS011;63774;45.292;11.784;2022-11-23T17:22:12;2.40;;;1.30;;
69551;SDS011;63774;45.292;11.784;2022-11-23T17:24:39;2.70;;;1.40;;
69551;SDS011;63774;45.292;11.784;2022-11-23T17:27:04;3.00;;;1.50;;